Pamukkale, Turkey
Current Conditions -  °F | °C
As of 8:50 PM on Friday 31 Oct 2014 (Local Time) from LTAY Reporting Station
Broken Clouds Broken Clouds  
Wind Chill: 50°   Ceiling: 10000
Heat Index: 50°   Visibility: 6mi
Dew Point: 43°   Wind: 2mph
Humidity: 76%   Direction: NA
Pressure: 30"   Gusts: NA
Location:  37.89°N, 29.13°E
Report Text: LTAY 311750Z VRB02KT 9999 SCT035 BKN100 10/06 Q1016
Loading
Personal Weather Stations






























Interactive Weather Map New forecast layout! Learn more

10-Day Weather Forecast

Advertisements
Track Severe Weather on mobile